sensor_id;sensor_type;location;lat;lon;timestamp;pressure;altitude;pressure_sealevel;temperature;humidity
68793;BME280;55778;54.346;10.210;2022-12-29T00:02:21;99540.72;;;7.09;100.00
68793;BME280;55778;54.346;10.210;2022-12-29T00:04:49;99545.25;;;7.08;100.00
68793;BME280;55778;54.346;10.210;2022-12-29T00:07:15;99553.09;;;7.11;100.00
68793;BME280;55778;54.346;10.210;2022-12-29T00:09:41;99552.78;;;7.14;100.00
68793;BME280;55778;54.346;10.210;2022-12-29T00:12:06;99541.63;;;7.17;100.00
68793;BME280;55778;54.346;10.210;2022-12-29T00:14:31;99525.94;;;7.21;100.00
68793;BME280;55778;54.346;10.210;2022-12-29T00:17:15;99527.47;;;7.23;100.00
68793;BME280;55778;54.346;10.210;2022-12-29T00:19:40;99522.59;;;7.27;100.00
68793;BME280;55778;54.346;10.210;2022-12-29T00:22:25;99531.41;;;7.29;100.00
68793;BME280;55778;54.346;10.210;2022-12-29T00:25:10;99512.28;;;7.30;100.00
68793;BME280;55778;54.346;10.210;2022-12-29T00:27:55;99520.81;;;7.35;100.00
68793;BME280;55778;54.346;10.210;2022-12-29T00:30:39;99507.94;;;7.37;100.00
68793;BME280;55778;54.346;10.210;2022-12-29T00:33:28;99512.75;;;7.43;100.00
68793;BME280;55778;54.346;10.210;2022-12-29T00:36:35;99513.59;;;7.44;100.00
68793;BME280;55778;54.346;10.210;2022-12-29T00:39:12;99509.97;;;7.53;100.00
68793;BME280;55778;54.346;10.210;2022-12-29T00:42:03;99512.66;;;7.53;100.00
68793;BME280;55778;54.346;10.210;2022-12-29T00:44:47;99504.53;;;7.53;100.00
68793;BME280;55778;54.346;10.210;2022-12-29T00:47:13;99505.75;;;7.58;100.00
68793;BME280;55778;54.346;10.210;2022-12-29T00:49:38;99510.88;;;7.61;100.00
68793;BME280;55778;54.346;10.210;2022-12-29T00:52:07;99504.44;;;7.62;100.00
68793;BME280;55778;54.346;10.210;2022-12-29T00:54:34;99503.28;;;7.65;100.00
68793;BME280;55778;54.346;10.210;2022-12-29T00:57:01;99504.81;;;7.67;100.00
68793;BME280;55778;54.346;10.210;2022-12-29T00:59:26;99494.34;;;7.72;100.00
68793;BME280;55778;54.346;10.210;2022-12-29T01:01:53;99498.44;;;7.76;100.00
68793;BME280;55778;54.346;10.210;2022-12-29T01:04:21;99487.28;;;7.79;100.00
68793;BME280;55778;54.346;10.210;2022-12-29T01:06:47;99491.53;;;7.82;100.00
68793;BME280;55778;54.346;10.210;2022-12-29T01:09:12;99483.22;;;7.83;100.00
68793;BME280;55778;54.346;10.210;2022-12-29T01:11:56;99488.50;;;7.85;100.00
68793;BME280;55778;54.346;10.210;2022-12-29T01:14:22;99478.50;;;7.85;100.00
68793;BME280;55778;54.346;10.210;2022-12-29T01:16:48;99483.59;;;7.88;100.00
68793;BME280;55778;54.346;10.210;2022-12-29T01:19:14;99485.28;;;7.89;100.00
68793;BME280;55778;54.346;10.210;2022-12-29T01:21:40;99473.78;;;7.87;100.00
68793;BME280;55778;54.346;10.210;2022-12-29T01:24:05;99482.25;;;7.92;100.00
68793;BME280;55778;54.346;10.210;2022-12-29T01:26:31;99470.44;;;7.93;100.00
68793;BME280;55778;54.346;10.210;2022-12-29T01:28:57;99474.50;;;7.97;100.00
68793;BME280;55778;54.346;10.210;2022-12-29T01:31:22;99480.81;;;7.98;100.00
68793;BME280;55778;54.346;10.210;2022-12-29T01:33:47;99482.31;;;8.00;100.00
68793;BME280;55778;54.346;10.210;2022-12-29T01:36:14;99477.59;;;8.02;100.00
68793;BME280;55778;54.346;10.210;2022-12-29T01:38:40;99462.69;;;8.06;100.00
68793;BME280;55778;54.346;10.210;2022-12-29T01:41:07;99463.38;;;8.08;100.00
68793;BME280;55778;54.346;10.210;2022-12-29T01:48:42;99462.94;;;8.21;100.00
68793;BME280;55778;54.346;10.210;2022-12-29T01:51:08;99448.22;;;8.24;100.00
68793;BME280;55778;54.346;10.210;2022-12-29T01:53:35;99457.91;;;8.26;100.00
68793;BME280;55778;54.346;10.210;2022-12-29T01:56:04;99456.19;;;8.25;100.00
68793;BME280;55778;54.346;10.210;2022-12-29T01:58:34;99456.03;;;8.27;100.00
68793;BME280;55778;54.346;10.210;2022-12-29T02:01:02;99445.00;;;8.28;100.00
68793;BME280;55778;54.346;10.210;2022-12-29T02:03:27;99443.47;;;8.26;100.00
68793;BME280;55778;54.346;10.210;2022-12-29T02:06:11;99420.25;;;8.23;100.00
68793;BME280;55778;54.346;10.210;2022-12-29T02:08:38;99429.75;;;8.27;100.00
68793;BME280;55778;54.346;10.210;2022-12-29T02:11:05;99414.50;;;8.26;100.00
68793;BME280;55778;54.346;10.210;2022-12-29T02:13:31;99411.13;;;8.32;100.00
68793;BME280;55778;54.346;10.210;2022-12-29T02:16:34;99407.72;;;8.30;100.00
68793;BME280;55778;54.346;10.210;2022-12-29T02:19:20;99409.56;;;8.30;100.00
68793;BME280;55778;54.346;10.210;2022-12-29T02:22:05;99412.13;;;8.31;100.00
68793;BME280;55778;54.346;10.210;2022-12-29T02:27:34;99401.13;;;8.41;100.00
68793;BME280;55778;54.346;10.210;2022-12-29T02:33:00;99387.19;;;8.36;100.00
68793;BME280;55778;54.346;10.210;2022-12-29T02:40:54;99384.97;;;8.23;100.00
68793;BME280;55778;54.346;10.210;2022-12-29T02:43:29;99388.81;;;8.20;100.00
68793;BME280;55778;54.346;10.210;2022-12-29T02:46:04;99380.31;;;8.15;100.00
68793;BME280;55778;54.346;10.210;2022-12-29T02:48:41;99368.97;;;8.20;100.00
68793;BME280;55778;54.346;10.210;2022-12-29T02:51:18;99368.97;;;8.20;100.00
68793;BME280;55778;54.346;10.210;2022-12-29T02:53:45;99367.97;;;8.21;100.00
68793;BME280;55778;54.346;10.210;2022-12-29T02:56:30;99375.09;;;8.22;100.00
68793;BME280;55778;54.346;10.210;2022-12-29T02:58:55;99373.09;;;8.24;100.00
68793;BME280;55778;54.346;10.210;2022-12-29T03:01:42;99356.47;;;8.27;100.00
68793;BME280;55778;54.346;10.210;2022-12-29T03:10:01;99359.88;;;8.37;100.00
68793;BME280;55778;54.346;10.210;2022-12-29T03:12:34;99357.00;;;8.39;100.00
68793;BME280;55778;54.346;10.210;2022-12-29T03:15:27;99353.31;;;8.40;100.00
68793;BME280;55778;54.346;10.210;2022-12-29T03:18:21;99346.00;;;8.40;100.00
68793;BME280;55778;54.346;10.210;2022-12-29T03:20:55;99347.34;;;8.44;100.00
68793;BME280;55778;54.346;10.210;2022-12-29T03:23:23;99342.59;;;8.46;100.00
68793;BME280;55778;54.346;10.210;2022-12-29T03:25:56;99335.31;;;8.47;100.00
68793;BME280;55778;54.346;10.210;2022-12-29T03:28:36;99347.88;;;8.48;100.00
68793;BME280;55778;54.346;10.210;2022-12-29T03:31:04;99341.09;;;8.52;100.00
68793;BME280;55778;54.346;10.210;2022-12-29T03:33:32;99337.19;;;8.54;100.00
68793;BME280;55778;54.346;10.210;2022-12-29T03:36:04;99326.19;;;8.56;100.00
68793;BME280;55778;54.346;10.210;2022-12-29T03:38:35;99340.25;;;8.59;100.00
68793;BME280;55778;54.346;10.210;2022-12-29T03:41:07;99336.03;;;8.65;100.00
68793;BME280;55778;54.346;10.210;2022-12-29T03:43:34;99347.38;;;8.68;100.00
68793;BME280;55778;54.346;10.210;2022-12-29T03:45:59;99334.84;;;8.75;100.00
68793;BME280;55778;54.346;10.210;2022-12-29T03:48:25;99326.38;;;8.78;100.00
68793;BME280;55778;54.346;10.210;2022-12-29T03:50:50;99329.75;;;8.80;100.00
68793;BME280;55778;54.346;10.210;2022-12-29T03:53:15;99347.56;;;8.91;100.00
68793;BME280;55778;54.346;10.210;2022-12-29T03:55:41;99338.22;;;8.93;100.00
68793;BME280;55778;54.346;10.210;2022-12-29T03:58:06;99325.50;;;8.94;100.00
68793;BME280;55778;54.346;10.210;2022-12-29T04:00:32;99317.53;;;8.92;100.00
68793;BME280;55778;54.346;10.210;2022-12-29T04:02:57;99306.84;;;8.99;100.00
68793;BME280;55778;54.346;10.210;2022-12-29T04:05:22;99305.13;;;9.06;100.00
68793;BME280;55778;54.346;10.210;2022-12-29T04:07:48;99307.16;;;9.04;100.00
68793;BME280;55778;54.346;10.210;2022-12-29T04:10:13;99317.34;;;9.02;100.00
68793;BME280;55778;54.346;10.210;2022-12-29T04:12:39;99305.81;;;9.00;100.00
68793;BME280;55778;54.346;10.210;2022-12-29T04:15:07;99298.34;;;9.02;100.00
68793;BME280;55778;54.346;10.210;2022-12-29T04:17:32;99289.16;;;9.03;100.00
68793;BME280;55778;54.346;10.210;2022-12-29T04:19:58;99288.63;;;9.07;100.00
68793;BME280;55778;54.346;10.210;2022-12-29T04:22:43;99284.03;;;9.16;100.00
68793;BME280;55778;54.346;10.210;2022-12-29T04:25:09;99305.13;;;9.14;100.00
68793;BME280;55778;54.346;10.210;2022-12-29T04:27:34;99290.50;;;9.15;100.00
68793;BME280;55778;54.346;10.210;2022-12-29T04:29:59;99274.88;;;9.09;100.00
68793;BME280;55778;54.346;10.210;2022-12-29T04:32:25;99270.66;;;9.06;100.00
68793;BME280;55778;54.346;10.210;2022-12-29T04:34:50;99292.72;;;9.03;100.00
68793;BME280;55778;54.346;10.210;2022-12-29T04:37:15;99277.44;;;9.02;100.00
68793;BME280;55778;54.346;10.210;2022-12-29T04:39:41;99278.28;;;9.03;100.00
68793;BME280;55778;54.346;10.210;2022-12-29T04:42:06;99277.09;;;9.05;100.00
68793;BME280;55778;54.346;10.210;2022-12-29T04:44:32;99277.09;;;9.05;100.00
68793;BME280;55778;54.346;10.210;2022-12-29T04:46:57;99265.38;;;9.05;100.00
68793;BME280;55778;54.346;10.210;2022-12-29T04:49:23;99267.25;;;9.04;100.00
68793;BME280;55778;54.346;10.210;2022-12-29T04:51:48;99262.69;;;9.05;100.00
68793;BME280;55778;54.346;10.210;2022-12-29T04:54:13;99271.66;;;9.05;100.00
68793;BME280;55778;54.346;10.210;2022-12-29T04:56:39;99264.53;;;9.04;100.00
68793;BME280;55778;54.346;10.210;2022-12-29T04:59:04;99248.56;;;9.01;100.00
68793;BME280;55778;54.346;10.210;2022-12-29T05:01:30;99246.38;;;9.05;100.00
68793;BME280;55778;54.346;10.210;2022-12-29T05:03:55;99239.72;;;9.07;100.00
68793;BME280;55778;54.346;10.210;2022-12-29T05:06:21;99236.50;;;9.12;100.00
68793;BME280;55778;54.346;10.210;2022-12-29T05:08:46;99240.91;;;9.13;100.00
68793;BME280;55778;54.346;10.210;2022-12-29T05:11:11;99232.56;;;9.14;100.00
68793;BME280;55778;54.346;10.210;2022-12-29T05:13:37;99240.72;;;9.14;100.00
68793;BME280;55778;54.346;10.210;2022-12-29T05:16:02;99237.31;;;9.20;100.00
68793;BME280;55778;54.346;10.210;2022-12-29T05:18:28;99230.03;;;9.21;100.00
68793;BME280;55778;54.346;10.210;2022-12-29T05:20:53;99228.63;;;9.25;100.00
68793;BME280;55778;54.346;10.210;2022-12-29T05:23:24;99214.88;;;9.26;100.00
68793;BME280;55778;54.346;10.210;2022-12-29T05:25:50;99222.84;;;9.28;100.00
68793;BME280;55778;54.346;10.210;2022-12-29T05:28:16;99224.38;;;9.30;100.00
68793;BME280;55778;54.346;10.210;2022-12-29T05:30:41;99219.25;;;9.35;100.00
68793;BME280;55778;54.346;10.210;2022-12-29T05:33:06;99233.88;;;9.34;100.00
68793;BME280;55778;54.346;10.210;2022-12-29T05:35:32;99226.09;;;9.23;100.00
68793;BME280;55778;54.346;10.210;2022-12-29T05:37:58;99224.25;;;9.16;100.00
68793;BME280;55778;54.346;10.210;2022-12-29T05:40:23;99228.88;;;9.07;100.00
68793;BME280;55778;54.346;10.210;2022-12-29T05:42:49;99221.75;;;8.98;100.00
68793;BME280;55778;54.346;10.210;2022-12-29T05:45:14;99227.53;;;8.95;100.00
68793;BME280;55778;54.346;10.210;2022-12-29T05:47:40;99209.88;;;8.91;100.00
68793;BME280;55778;54.346;10.210;2022-12-29T05:50:05;99216.16;;;8.92;100.00
68793;BME280;55778;54.346;10.210;2022-12-29T05:52:31;99216.31;;;8.90;100.00
68793;BME280;55778;54.346;10.210;2022-12-29T05:54:56;99227.88;;;8.92;100.00
68793;BME280;55778;54.346;10.210;2022-12-29T05:57:21;99227.53;;;8.95;100.00
68793;BME280;55778;54.346;10.210;2022-12-29T05:59:47;99229.22;;;8.96;100.00
68793;BME280;55778;54.346;10.210;2022-12-29T06:02:12;99230.75;;;8.99;100.00
68793;BME280;55778;54.346;10.210;2022-12-29T06:04:37;99240.59;;;9.00;100.00
68793;BME280;55778;54.346;10.210;2022-12-29T06:07:03;99226.50;;;9.04;100.00
68793;BME280;55778;54.346;10.210;2022-12-29T06:09:28;99235.81;;;9.10;100.00
68793;BME280;55778;54.346;10.210;2022-12-29T06:11:54;99204.41;;;9.07;100.00
68793;BME280;55778;54.346;10.210;2022-12-29T06:14:19;99231.25;;;9.10;100.00
68793;BME280;55778;54.346;10.210;2022-12-29T06:16:45;99229.03;;;9.14;100.00
68793;BME280;55778;54.346;10.210;2022-12-29T06:19:10;99229.56;;;9.09;100.00
68793;BME280;55778;54.346;10.210;2022-12-29T06:21:36;99235.97;;;9.08;100.00
68793;BME280;55778;54.346;10.210;2022-12-29T06:24:03;99220.03;;;9.05;100.00
68793;BME280;55778;54.346;10.210;2022-12-29T06:26:29;99227.13;;;9.14;100.00
68793;BME280;55778;54.346;10.210;2022-12-29T06:28:54;99241.25;;;9.10;100.00
68793;BME280;55778;54.346;10.210;2022-12-29T06:31:20;99245.34;;;9.14;100.00
68793;BME280;55778;54.346;10.210;2022-12-29T06:33:45;99244.31;;;9.15;100.00
68793;BME280;55778;54.346;10.210;2022-12-29T06:36:11;99245.16;;;9.15;100.00
68793;BME280;55778;54.346;10.210;2022-12-29T06:38:37;99234.28;;;9.15;100.00
68793;BME280;55778;54.346;10.210;2022-12-29T06:41:02;99237.50;;;9.19;100.00
68793;BME280;55778;54.346;10.210;2022-12-29T06:43:28;99246.97;;;9.23;100.00
68793;BME280;55778;54.346;10.210;2022-12-29T06:45:53;99237.47;;;9.27;100.00
68793;BME280;55778;54.346;10.210;2022-12-29T06:48:18;99251.25;;;9.25;100.00
68793;BME280;55778;54.346;10.210;2022-12-29T06:50:44;99237.81;;;9.24;100.00
68793;BME280;55778;54.346;10.210;2022-12-29T06:53:09;99244.25;;;9.23;100.00
68793;BME280;55778;54.346;10.210;2022-12-29T06:55:35;99237.50;;;9.19;100.00
68793;BME280;55778;54.346;10.210;2022-12-29T06:58:00;99241.88;;;9.20;100.00
68793;BME280;55778;54.346;10.210;2022-12-29T07:00:26;99244.44;;;9.21;100.00
68793;BME280;55778;54.346;10.210;2022-12-29T07:02:51;99242.91;;;9.27;100.00
68793;BME280;55778;54.346;10.210;2022-12-29T07:08:49;99245.25;;;9.38;100.00
68793;BME280;55778;54.346;10.210;2022-12-29T07:11:15;99232.50;;;9.38;100.00
68793;BME280;55778;54.346;10.210;2022-12-29T07:13:40;99238.97;;;9.37;100.00
68793;BME280;55778;54.346;10.210;2022-12-29T07:16:07;99234.53;;;9.36;100.00
68793;BME280;55778;54.346;10.210;2022-12-29T07:18:32;99226.88;;;9.40;100.00
68793;BME280;55778;54.346;10.210;2022-12-29T07:20:58;99240.13;;;9.43;100.00
68793;BME280;55778;54.346;10.210;2022-12-29T07:23:23;99237.06;;;9.46;100.00
68793;BME280;55778;54.346;10.210;2022-12-29T07:25:49;99244.53;;;9.44;100.00
68793;BME280;55778;54.346;10.210;2022-12-29T07:28:14;99237.94;;;9.46;100.00
68793;BME280;55778;54.346;10.210;2022-12-29T07:30:40;99253.53;;;9.52;100.00
68793;BME280;55778;54.346;10.210;2022-12-29T07:33:05;99254.72;;;9.50;100.00
68793;BME280;55778;54.346;10.210;2022-12-29T07:35:31;99256.44;;;9.51;100.00
68793;BME280;55778;54.346;10.210;2022-12-29T07:37:56;99254.88;;;9.56;100.00
68793;BME280;55778;54.346;10.210;2022-12-29T07:40:21;99249.09;;;9.51;100.00
68793;BME280;55778;54.346;10.210;2022-12-29T07:42:47;99264.22;;;9.54;100.00
68793;BME280;55778;54.346;10.210;2022-12-29T07:45:12;99260.31;;;9.56;100.00
68793;BME280;55778;54.346;10.210;2022-12-29T07:47:38;99277.81;;;9.54;100.00
68793;BME280;55778;54.346;10.210;2022-12-29T07:50:04;99279.53;;;9.55;100.00
68793;BME280;55778;54.346;10.210;2022-12-29T07:52:29;99288.50;;;9.55;100.00
68793;BME280;55778;54.346;10.210;2022-12-29T07:54:55;99278.31;;;9.57;100.00
68793;BME280;55778;54.346;10.210;2022-12-29T07:57:20;99287.31;;;9.58;100.00
68793;BME280;55778;54.346;10.210;2022-12-29T07:59:45;99289.00;;;9.59;100.00
68793;BME280;55778;54.346;10.210;2022-12-29T08:02:11;99296.13;;;9.60;100.00
68793;BME280;55778;54.346;10.210;2022-12-29T08:04:37;99292.41;;;9.61;100.00
68793;BME280;55778;54.346;10.210;2022-12-29T08:07:02;99307.53;;;9.55;100.00
68793;BME280;55778;54.346;10.210;2022-12-29T08:09:27;99305.34;;;9.59;100.00
68793;BME280;55778;54.346;10.210;2022-12-29T08:11:53;99316.91;;;9.61;100.00
68793;BME280;55778;54.346;10.210;2022-12-29T08:14:19;99293.25;;;9.61;100.00
68793;BME280;55778;54.346;10.210;2022-12-29T08:16:44;99293.78;;;9.57;100.00
68793;BME280;55778;54.346;10.210;2022-12-29T08:19:11;99301.94;;;9.57;98.41
68793;BME280;55778;54.346;10.210;2022-12-29T08:21:37;99305.84;;;9.62;97.68
68793;BME280;55778;54.346;10.210;2022-12-29T08:24:02;99295.97;;;9.61;97.52
68793;BME280;55778;54.346;10.210;2022-12-29T08:26:28;99312.78;;;9.65;95.19
68793;BME280;55778;54.346;10.210;2022-12-29T08:28:54;99314.13;;;9.69;95.41
68793;BME280;55778;54.346;10.210;2022-12-29T08:31:21;99309.53;;;9.69;95.39
68793;BME280;55778;54.346;10.210;2022-12-29T08:33:46;99316.38;;;9.65;95.00
68793;BME280;55778;54.346;10.210;2022-12-29T08:36:12;99315.34;;;9.66;95.00
68793;BME280;55778;54.346;10.210;2022-12-29T08:38:37;99315.66;;;9.71;93.65
68793;BME280;55778;54.346;10.210;2022-12-29T08:41:03;99327.19;;;9.73;93.50
68793;BME280;55778;54.346;10.210;2022-12-29T08:43:29;99294.75;;;9.72;92.93
68793;BME280;55778;54.346;10.210;2022-12-29T08:45:54;99313.59;;;9.81;90.63
68793;BME280;55778;54.346;10.210;2022-12-29T08:48:20;99301.50;;;9.84;89.98
68793;BME280;55778;54.346;10.210;2022-12-29T08:50:47;99311.03;;;9.80;90.64
68793;BME280;55778;54.346;10.210;2022-12-29T08:53:13;99307.97;;;9.75;90.12
68793;BME280;55778;54.346;10.210;2022-12-29T08:55:39;99302.88;;;9.80;89.38
68793;BME280;55778;54.346;10.210;2022-12-29T08:58:04;99311.22;;;9.78;90.42
68793;BME280;55778;54.346;10.210;2022-12-29T09:00:30;99312.59;;;9.74;90.77
68793;BME280;55778;54.346;10.210;2022-12-29T09:02:55;99312.59;;;9.74;90.94
68793;BME280;55778;54.346;10.210;2022-12-29T09:05:20;99297.97;;;9.67;91.46
68793;BME280;55778;54.346;10.210;2022-12-29T09:07:46;99308.56;;;9.62;91.73
68793;BME280;55778;54.346;10.210;2022-12-29T09:10:11;99320.97;;;9.57;92.61
68793;BME280;55778;54.346;10.210;2022-12-29T09:12:37;99322.69;;;9.58;93.52
68793;BME280;55778;54.346;10.210;2022-12-29T09:15:03;99327.31;;;9.49;94.63
68793;BME280;55778;54.346;10.210;2022-12-29T09:17:28;99338.88;;;9.35;97.49
68793;BME280;55778;54.346;10.210;2022-12-29T09:20:11;99332.44;;;9.28;100.00
68793;BME280;55778;54.346;10.210;2022-12-29T09:22:36;99343.97;;;9.38;100.00
68793;BME280;55778;54.346;10.210;2022-12-29T09:25:02;99343.47;;;9.27;100.00
68793;BME280;55778;54.346;10.210;2022-12-29T09:27:28;99346.72;;;9.22;100.00
68793;BME280;55778;54.346;10.210;2022-12-29T09:29:53;99349.59;;;9.21;100.00
68793;BME280;55778;54.346;10.210;2022-12-29T09:32:19;99352.31;;;9.21;100.00
68793;BME280;55778;54.346;10.210;2022-12-29T09:34:44;99352.28;;;9.29;98.08
68793;BME280;55778;54.346;10.210;2022-12-29T09:37:10;99350.78;;;9.34;97.45
68793;BME280;55778;54.346;10.210;2022-12-29T09:39:35;99336.31;;;9.42;96.03
68793;BME280;55778;54.346;10.210;2022-12-29T09:47:38;99345.59;;;9.71;89.35
68793;BME280;55778;54.346;10.210;2022-12-29T09:50:29;99345.41;;;9.73;89.52
68793;BME280;55778;54.346;10.210;2022-12-29T09:53:14;99354.22;;;9.75;89.77
68793;BME280;55778;54.346;10.210;2022-12-29T09:55:47;99346.75;;;9.77;88.37
68793;BME280;55778;54.346;10.210;2022-12-29T09:58:41;99376.16;;;9.89;87.37
68793;BME280;55778;54.346;10.210;2022-12-29T10:01:21;99368.28;;;9.94;86.58
68793;BME280;55778;54.346;10.210;2022-12-29T10:03:54;99357.91;;;9.98;85.73
68793;BME280;55778;54.346;10.210;2022-12-29T10:09:10;99364.38;;;10.36;82.97
68793;BME280;55778;54.346;10.210;2022-12-29T10:22:51;99342.47;;;10.29;80.81
68793;BME280;55778;54.346;10.210;2022-12-29T10:25:25;99334.13;;;10.31;80.73
68793;BME280;55778;54.346;10.210;2022-12-29T10:27:53;99338.59;;;10.24;79.88
68793;BME280;55778;54.346;10.210;2022-12-29T10:30:21;99341.53;;;10.14;80.57
68793;BME280;55778;54.346;10.210;2022-12-29T10:32:57;99332.03;;;10.10;80.47
68793;BME280;55778;54.346;10.210;2022-12-29T10:35:33;99326.41;;;10.12;80.91
68793;BME280;55778;54.346;10.210;2022-12-29T10:38:38;99324.38;;;10.05;79.97
68793;BME280;55778;54.346;10.210;2022-12-29T10:41:23;99323.69;;;10.03;81.03
68793;BME280;55778;54.346;10.210;2022-12-29T10:43:52;99328.44;;;10.01;81.91
68793;BME280;55778;54.346;10.210;2022-12-29T10:46:23;99336.78;;;10.08;80.35
68793;BME280;55778;54.346;10.210;2022-12-29T10:48:49;99331.00;;;10.11;80.74
68793;BME280;55778;54.346;10.210;2022-12-29T10:51:26;99319.44;;;10.09;81.61
68793;BME280;55778;54.346;10.210;2022-12-29T10:53:59;99325.72;;;10.09;81.35
68793;BME280;55778;54.346;10.210;2022-12-29T10:56:31;99329.31;;;10.10;81.72
68793;BME280;55778;54.346;10.210;2022-12-29T10:59:01;99318.25;;;10.03;82.06
68793;BME280;55778;54.346;10.210;2022-12-29T11:01:37;99346.16;;;9.97;83.67
68793;BME280;55778;54.346;10.210;2022-12-29T11:06:56;99321.56;;;9.83;85.65
68793;BME280;55778;54.346;10.210;2022-12-29T11:09:34;99316.06;;;9.99;85.25
68793;BME280;55778;54.346;10.210;2022-12-29T11:12:27;99316.50;;;10.19;84.32
68793;BME280;55778;54.346;10.210;2022-12-29T11:17:46;99316.19;;;10.13;83.46
68793;BME280;55778;54.346;10.210;2022-12-29T11:20:28;99319.09;;;10.04;83.95
68793;BME280;55778;54.346;10.210;2022-12-29T11:22:54;99316.06;;;9.99;84.20
68793;BME280;55778;54.346;10.210;2022-12-29T11:25:20;99319.47;;;10.01;84.31
68793;BME280;55778;54.346;10.210;2022-12-29T11:28:15;99316.63;;;9.86;85.65
68793;BME280;55778;54.346;10.210;2022-12-29T11:30:41;99318.22;;;9.73;86.52
68793;BME280;55778;54.346;10.210;2022-12-29T11:33:09;99319.75;;;9.67;86.41
68793;BME280;55778;54.346;10.210;2022-12-29T11:35:41;99322.16;;;9.62;86.99
68793;BME280;55778;54.346;10.210;2022-12-29T11:38:22;99321.47;;;9.60;87.34
68793;BME280;55778;54.346;10.210;2022-12-29T11:40:49;99324.88;;;9.62;87.82
68793;BME280;55778;54.346;10.210;2022-12-29T11:43:31;99334.22;;;9.60;88.71
68793;BME280;55778;54.346;10.210;2022-12-29T11:46:01;99331.66;;;9.58;89.17
68793;BME280;55778;54.346;10.210;2022-12-29T11:48:38;99327.66;;;9.46;91.52
68793;BME280;55778;54.346;10.210;2022-12-29T11:51:05;99338.69;;;9.29;91.88
68793;BME280;55778;54.346;10.210;2022-12-29T11:53:38;99338.72;;;9.21;94.09
68793;BME280;55778;54.346;10.210;2022-12-29T11:56:11;99331.09;;;9.08;94.30
68793;BME280;55778;54.346;10.210;2022-12-29T11:58:38;99343.66;;;9.01;95.70
68793;BME280;55778;54.346;10.210;2022-12-29T12:03:48;99325.66;;;9.08;95.21
68793;BME280;55778;54.346;10.210;2022-12-29T12:06:20;99328.53;;;9.15;93.37
68793;BME280;55778;54.346;10.210;2022-12-29T12:08:55;99328.03;;;9.19;93.10
68793;BME280;55778;54.346;10.210;2022-12-29T12:11:26;99333.78;;;9.24;92.90
68793;BME280;55778;54.346;10.210;2022-12-29T12:14:04;99339.38;;;9.31;91.48
68793;BME280;55778;54.346;10.210;2022-12-29T12:16:39;99324.06;;;9.38;91.02
68793;BME280;55778;54.346;10.210;2022-12-29T12:19:15;99333.09;;;9.38;90.25
68793;BME280;55778;54.346;10.210;2022-12-29T12:21:49;99342.09;;;9.31;91.76
68793;BME280;55778;54.346;10.210;2022-12-29T12:27:22;99325.31;;;9.19;93.23
68793;BME280;55778;54.346;10.210;2022-12-29T12:30:16;99327.84;;;9.13;93.75
68793;BME280;55778;54.346;10.210;2022-12-29T12:33:04;99323.44;;;9.12;93.66
68793;BME280;55778;54.346;10.210;2022-12-29T12:49:42;99350.28;;;8.75;98.92
68793;BME280;55778;54.346;10.210;2022-12-29T12:55:35;99354.19;;;8.64;100.00
68793;BME280;55778;54.346;10.210;2022-12-29T13:03:59;99363.50;;;8.54;100.00
68793;BME280;55778;54.346;10.210;2022-12-29T13:06:45;99365.19;;;8.47;100.00
68793;BME280;55778;54.346;10.210;2022-12-29T13:09:43;99378.75;;;8.47;100.00
68793;BME280;55778;54.346;10.210;2022-12-29T13:12:18;99372.78;;;8.43;100.00
68793;BME280;55778;54.346;10.210;2022-12-29T13:17:30;99383.66;;;8.43;100.00
68793;BME280;55778;54.346;10.210;2022-12-29T13:20:27;99390.44;;;8.39;100.00
68793;BME280;55778;54.346;10.210;2022-12-29T13:25:49;99397.03;;;8.29;100.00
68793;BME280;55778;54.346;10.210;2022-12-29T13:28:28;99405.31;;;8.27;100.00
68793;BME280;55778;54.346;10.210;2022-12-29T13:31:09;99412.78;;;8.25;100.00
68793;BME280;55778;54.346;10.210;2022-12-29T13:36:28;99418.81;;;8.11;100.00
68793;BME280;55778;54.346;10.210;2022-12-29T13:41:32;99431.88;;;8.15;100.00
68793;BME280;55778;54.346;10.210;2022-12-29T13:44:01;99456.13;;;8.17;100.00
68793;BME280;55778;54.346;10.210;2022-12-29T13:46:33;99433.53;;;8.08;100.00
68793;BME280;55778;54.346;10.210;2022-12-29T13:49:06;99440.34;;;8.12;100.00
68793;BME280;55778;54.346;10.210;2022-12-29T13:51:34;99453.06;;;8.12;100.00
68793;BME280;55778;54.346;10.210;2022-12-29T13:54:12;99441.16;;;8.13;100.00
68793;BME280;55778;54.346;10.210;2022-12-29T13:56:45;99457.38;;;8.23;100.00
68793;BME280;55778;54.346;10.210;2022-12-29T14:02:13;99475.88;;;8.27;100.00
68793;BME280;55778;54.346;10.210;2022-12-29T14:07:43;99490.81;;;8.23;100.00
68793;BME280;55778;54.346;10.210;2022-12-29T14:10:45;99492.38;;;8.34;100.00
68793;BME280;55778;54.346;10.210;2022-12-29T14:13:17;99490.66;;;8.33;98.43
68793;BME280;55778;54.346;10.210;2022-12-29T14:15:47;99490.00;;;8.39;96.78
68793;BME280;55778;54.346;10.210;2022-12-29T14:18:24;99491.19;;;8.36;97.71
68793;BME280;55778;54.346;10.210;2022-12-29T14:20:54;99508.66;;;8.34;98.08
68793;BME280;55778;54.346;10.210;2022-12-29T14:26:10;99511.72;;;8.39;96.56
68793;BME280;55778;54.346;10.210;2022-12-29T14:28:43;99520.91;;;8.38;95.53
68793;BME280;55778;54.346;10.210;2022-12-29T14:36:35;99541.59;;;8.39;94.74
68793;BME280;55778;54.346;10.210;2022-12-29T14:39:01;99552.97;;;8.42;94.15
68793;BME280;55778;54.346;10.210;2022-12-29T14:41:40;99563.13;;;8.32;94.70
68793;BME280;55778;54.346;10.210;2022-12-29T14:49:21;99571.66;;;8.45;93.86
68793;BME280;55778;54.346;10.210;2022-12-29T14:51:50;99568.25;;;8.43;93.54
68793;BME280;55778;54.346;10.210;2022-12-29T14:57:03;99582.31;;;8.39;93.54
68793;BME280;55778;54.346;10.210;2022-12-29T14:59:30;99579.81;;;8.45;92.72
68793;BME280;55778;54.346;10.210;2022-12-29T15:01:57;99582.72;;;8.52;92.64